sensor_id;sensor_type;location;lat;lon;timestamp;pressure;altitude;pressure_sealevel;temperature;humidity
77149;BME280;66122;47.130;16.844;2023-05-16T00:04:16;99297.59;;;11.61;100.00
77149;BME280;66122;47.130;16.844;2023-05-16T00:14:19;99273.50;;;11.51;100.00
77149;BME280;66122;47.130;16.844;2023-05-16T00:24:22;99277.31;;;11.33;100.00
77149;BME280;66122;47.130;16.844;2023-05-16T00:34:24;99271.16;;;11.32;100.00
77149;BME280;66122;47.130;16.844;2023-05-16T00:44:27;99224.84;;;11.38;100.00
77149;BME280;66122;47.130;16.844;2023-05-16T00:54:30;99224.44;;;11.44;100.00
77149;BME280;66122;47.130;16.844;2023-05-16T01:04:32;99228.03;;;11.43;100.00
77149;BME280;66122;47.130;16.844;2023-05-16T01:34:55;99239.34;;;11.06;100.00
77149;BME280;66122;47.130;16.844;2023-05-16T01:55:09;99214.16;;;11.25;100.00
77149;BME280;66122;47.130;16.844;2023-05-16T02:05:13;99202.69;;;11.25;100.00
77149;BME280;66122;47.130;16.844;2023-05-16T02:15:18;99158.78;;;11.21;100.00
77149;BME280;66122;47.130;16.844;2023-05-16T02:25:21;99163.22;;;11.20;100.00
77149;BME280;66122;47.130;16.844;2023-05-16T02:35:23;99175.31;;;11.24;100.00
77149;BME280;66122;47.130;16.844;2023-05-16T02:45:26;99143.31;;;11.27;100.00
77149;BME280;66122;47.130;16.844;2023-05-16T02:55:29;99152.72;;;11.19;100.00
77149;BME280;66122;47.130;16.844;2023-05-16T03:05:32;99160.25;;;11.25;100.00
77149;BME280;66122;47.130;16.844;2023-05-16T03:15:34;99191.25;;;11.24;100.00
77149;BME280;66122;47.130;16.844;2023-05-16T03:25:39;99195.09;;;11.33;100.00
77149;BME280;66122;47.130;16.844;2023-05-16T03:35:42;99218.28;;;11.44;100.00
77149;BME280;66122;47.130;16.844;2023-05-16T03:45:45;99198.44;;;11.49;100.00
77149;BME280;66122;47.130;16.844;2023-05-16T03:55:47;99180.19;;;11.18;100.00
77149;BME280;66122;47.130;16.844;2023-05-16T04:05:50;99183.91;;;11.15;100.00
77149;BME280;66122;47.130;16.844;2023-05-16T04:15:53;99210.06;;;11.34;100.00
77149;BME280;66122;47.130;16.844;2023-05-16T04:25:56;99193.81;;;11.39;100.00
77149;BME280;66122;47.130;16.844;2023-05-16T04:35:58;99190.97;;;11.29;100.00
77149;BME280;66122;47.130;16.844;2023-05-16T04:46:01;99196.88;;;11.32;100.00
77149;BME280;66122;47.130;16.844;2023-05-16T04:56:04;99208.13;;;11.23;100.00
77149;BME280;66122;47.130;16.844;2023-05-16T05:06:07;99264.91;;;11.33;100.00
77149;BME280;66122;47.130;16.844;2023-05-16T05:16:10;99263.59;;;11.53;100.00
77149;BME280;66122;47.130;16.844;2023-05-16T05:26:13;99234.34;;;11.67;100.00
77149;BME280;66122;47.130;16.844;2023-05-16T05:36:15;99222.78;;;11.68;100.00
77149;BME280;66122;47.130;16.844;2023-05-16T05:46:18;99221.47;;;11.49;100.00
77149;BME280;66122;47.130;16.844;2023-05-16T05:56:20;99195.66;;;11.38;100.00
77149;BME280;66122;47.130;16.844;2023-05-16T06:06:23;99153.44;;;11.60;100.00
77149;BME280;66122;47.130;16.844;2023-05-16T06:16:26;99153.97;;;11.53;100.00
77149;BME280;66122;47.130;16.844;2023-05-16T06:26:28;99171.72;;;11.52;100.00
77149;BME280;66122;47.130;16.844;2023-05-16T06:36:31;99162.16;;;11.62;100.00
77149;BME280;66122;47.130;16.844;2023-05-16T06:46:33;99219.28;;;11.68;100.00
77149;BME280;66122;47.130;16.844;2023-05-16T06:56:36;99212.63;;;11.75;100.00
77149;BME280;66122;47.130;16.844;2023-05-16T07:06:39;99208.84;;;11.92;100.00
77149;BME280;66122;47.130;16.844;2023-05-16T07:16:41;99199.94;;;11.93;100.00
77149;BME280;66122;47.130;16.844;2023-05-16T07:26:44;99185.06;;;12.03;100.00
77149;BME280;66122;47.130;16.844;2023-05-16T07:36:47;99188.25;;;12.08;100.00
77149;BME280;66122;47.130;16.844;2023-05-16T07:46:49;99164.78;;;12.02;100.00
77149;BME280;66122;47.130;16.844;2023-05-16T07:56:52;99183.88;;;11.82;100.00
77149;BME280;66122;47.130;16.844;2023-05-16T08:06:54;99197.38;;;11.79;100.00
77149;BME280;66122;47.130;16.844;2023-05-16T08:16:58;99191.44;;;12.00;100.00
77149;BME280;66122;47.130;16.844;2023-05-16T08:27:01;99209.28;;;11.86;100.00
77149;BME280;66122;47.130;16.844;2023-05-16T08:37:05;99189.50;;;12.40;100.00
77149;BME280;66122;47.130;16.844;2023-05-16T08:47:13;99195.03;;;12.37;100.00
77149;BME280;66122;47.130;16.844;2023-05-16T08:57:20;99216.09;;;12.02;100.00
77149;BME280;66122;47.130;16.844;2023-05-16T09:07:22;99206.75;;;12.22;100.00
77149;BME280;66122;47.130;16.844;2023-05-16T09:17:33;99191.84;;;12.20;100.00
77149;BME280;66122;47.130;16.844;2023-05-16T09:27:42;99210.13;;;12.11;100.00
77149;BME280;66122;47.130;16.844;2023-05-16T09:37:46;99211.41;;;12.06;100.00
77149;BME280;66122;47.130;16.844;2023-05-16T09:47:48;99237.53;;;12.12;100.00
77149;BME280;66122;47.130;16.844;2023-05-16T09:57:51;99226.06;;;12.11;100.00
77149;BME280;66122;47.130;16.844;2023-05-16T10:07:55;99255.06;;;12.02;100.00
77149;BME280;66122;47.130;16.844;2023-05-16T10:17:58;99185.38;;;12.11;100.00
77149;BME280;66122;47.130;16.844;2023-05-16T10:28:02;99129.63;;;12.84;100.00
77149;BME280;66122;47.130;16.844;2023-05-16T10:38:09;99132.81;;;12.89;100.00
77149;BME280;66122;47.130;16.844;2023-05-16T10:48:13;99071.53;;;13.14;100.00
77149;BME280;66122;47.130;16.844;2023-05-16T11:08:26;99042.56;;;12.51;100.00
77149;BME280;66122;47.130;16.844;2023-05-16T11:18:31;99017.56;;;12.53;100.00
77149;BME280;66122;47.130;16.844;2023-05-16T11:28:34;99068.31;;;12.50;100.00
77149;BME280;66122;47.130;16.844;2023-05-16T11:38:37;99055.38;;;12.33;100.00
77149;BME280;66122;47.130;16.844;2023-05-16T11:48:45;99020.84;;;12.81;100.00
77149;BME280;66122;47.130;16.844;2023-05-16T11:58:49;99051.50;;;12.74;100.00
77149;BME280;66122;47.130;16.844;2023-05-16T12:08:52;99037.56;;;12.46;100.00
77149;BME280;66122;47.130;16.844;2023-05-16T12:18:55;99022.81;;;12.42;100.00
77149;BME280;66122;47.130;16.844;2023-05-16T12:29:01;99011.75;;;12.48;100.00
77149;BME280;66122;47.130;16.844;2023-05-16T12:39:06;99013.91;;;12.43;100.00
77149;BME280;66122;47.130;16.844;2023-05-16T12:49:11;99017.06;;;12.48;100.00
77149;BME280;66122;47.130;16.844;2023-05-16T12:59:14;98992.25;;;12.37;100.00
77149;BME280;66122;47.130;16.844;2023-05-16T13:09:17;98993.22;;;12.60;100.00
77149;BME280;66122;47.130;16.844;2023-05-16T13:19:20;98988.28;;;12.66;100.00
77149;BME280;66122;47.130;16.844;2023-05-16T13:29:24;98981.38;;;12.64;100.00
77149;BME280;66122;47.130;16.844;2023-05-16T13:39:27;98966.63;;;12.60;100.00
77149;BME280;66122;47.130;16.844;2023-05-16T13:49:29;98967.69;;;12.57;100.00
77149;BME280;66122;47.130;16.844;2023-05-16T13:59:32;98956.47;;;12.30;100.00
77149;BME280;66122;47.130;16.844;2023-05-16T14:09:38;98931.69;;;12.29;100.00
77149;BME280;66122;47.130;16.844;2023-05-16T14:19:40;98930.69;;;12.19;100.00
77149;BME280;66122;47.130;16.844;2023-05-16T14:29:43;98934.53;;;12.15;100.00
77149;BME280;66122;47.130;16.844;2023-05-16T14:39:46;98939.06;;;12.02;100.00
77149;BME280;66122;47.130;16.844;2023-05-16T14:49:50;98939.91;;;11.90;100.00
77149;BME280;66122;47.130;16.844;2023-05-16T14:59:55;98948.56;;;11.81;100.00
77149;BME280;66122;47.130;16.844;2023-05-16T15:09:57;98934.22;;;11.83;100.00
77149;BME280;66122;47.130;16.844;2023-05-16T15:20:00;98924.44;;;11.84;100.00
77149;BME280;66122;47.130;16.844;2023-05-16T15:30:03;98919.38;;;11.81;100.00
77149;BME280;66122;47.130;16.844;2023-05-16T15:40:06;98930.19;;;11.78;100.00
77149;BME280;66122;47.130;16.844;2023-05-16T15:50:10;98920.94;;;11.70;100.00
77149;BME280;66122;47.130;16.844;2023-05-16T16:00:14;98899.50;;;11.73;100.00
77149;BME280;66122;47.130;16.844;2023-05-16T16:10:17;98886.25;;;11.73;100.00
77149;BME280;66122;47.130;16.844;2023-05-16T16:20:21;98882.53;;;11.76;100.00
77149;BME280;66122;47.130;16.844;2023-05-16T16:30:24;98877.31;;;11.74;100.00
77149;BME280;66122;47.130;16.844;2023-05-16T16:40:27;98893.44;;;11.71;100.00
77149;BME280;66122;47.130;16.844;2023-05-16T16:50:30;98898.75;;;11.71;100.00
77149;BME280;66122;47.130;16.844;2023-05-16T17:00:35;98936.88;;;11.70;100.00
77149;BME280;66122;47.130;16.844;2023-05-16T17:10:37;98960.75;;;11.70;100.00
77149;BME280;66122;47.130;16.844;2023-05-16T17:20:40;98945.28;;;11.64;100.00
77149;BME280;66122;47.130;16.844;2023-05-16T17:30:43;98948.47;;;11.57;100.00
77149;BME280;66122;47.130;16.844;2023-05-16T17:40:46;98953.47;;;11.49;100.00
77149;BME280;66122;47.130;16.844;2023-05-16T17:50:48;98967.59;;;11.49;100.00
77149;BME280;66122;47.130;16.844;2023-05-16T18:00:52;98969.28;;;11.50;100.00
77149;BME280;66122;47.130;16.844;2023-05-16T18:10:55;98979.25;;;11.47;100.00
77149;BME280;66122;47.130;16.844;2023-05-16T18:20:59;99053.03;;;11.54;100.00
77149;BME280;66122;47.130;16.844;2023-05-16T18:31:02;99047.63;;;11.56;100.00
77149;BME280;66122;47.130;16.844;2023-05-16T18:41:04;98928.13;;;11.45;100.00
77149;BME280;66122;47.130;16.844;2023-05-16T18:51:07;98916.47;;;11.34;100.00
77149;BME280;66122;47.130;16.844;2023-05-16T19:01:10;98921.13;;;11.31;100.00
77149;BME280;66122;47.130;16.844;2023-05-16T19:11:14;98909.78;;;11.29;100.00
77149;BME280;66122;47.130;16.844;2023-05-16T19:21:17;98935.16;;;11.20;100.00
77149;BME280;66122;47.130;16.844;2023-05-16T19:31:19;98926.25;;;11.21;100.00
77149;BME280;66122;47.130;16.844;2023-05-16T19:41:22;98921.56;;;11.38;100.00
77149;BME280;66122;47.130;16.844;2023-05-16T19:51:26;98944.88;;;11.32;100.00
77149;BME280;66122;47.130;16.844;2023-05-16T20:01:42;98932.78;;;11.41;100.00
77149;BME280;66122;47.130;16.844;2023-05-16T20:11:45;98928.53;;;11.39;100.00
77149;BME280;66122;47.130;16.844;2023-05-16T20:34:14;98971.31;;;11.47;100.00
77149;BME280;66122;47.130;16.844;2023-05-16T20:44:17;98978.81;;;11.53;100.00
77149;BME280;66122;47.130;16.844;2023-05-16T20:54:20;98967.16;;;11.55;100.00
77149;BME280;66122;47.130;16.844;2023-05-16T21:04:23;98974.78;;;11.60;100.00
77149;BME280;66122;47.130;16.844;2023-05-16T21:14:26;98982.69;;;11.74;100.00
77149;BME280;66122;47.130;16.844;2023-05-16T21:24:28;98985.00;;;11.66;100.00
77149;BME280;66122;47.130;16.844;2023-05-16T21:34:31;98997.41;;;11.65;100.00
77149;BME280;66122;47.130;16.844;2023-05-16T21:44:34;99014.06;;;11.67;100.00
77149;BME280;66122;47.130;16.844;2023-05-16T21:54:36;99007.78;;;11.68;100.00
77149;BME280;66122;47.130;16.844;2023-05-16T22:04:39;99020.00;;;11.71;100.00
77149;BME280;66122;47.130;16.844;2023-05-16T22:14:41;99030.72;;;11.69;100.00
77149;BME280;66122;47.130;16.844;2023-05-16T22:24:44;99038.69;;;11.82;100.00
77149;BME280;66122;47.130;16.844;2023-05-16T22:34:47;99043.41;;;11.79;100.00
77149;BME280;66122;47.130;16.844;2023-05-16T22:44:49;99041.34;;;11.82;100.00
77149;BME280;66122;47.130;16.844;2023-05-16T22:54:52;99052.81;;;11.83;100.00
77149;BME280;66122;47.130;16.844;2023-05-16T23:04:55;99061.63;;;11.83;100.00
77149;BME280;66122;47.130;16.844;2023-05-16T23:14:58;99066.84;;;11.85;100.00
77149;BME280;66122;47.130;16.844;2023-05-16T23:25:00;99080.13;;;11.85;100.00
77149;BME280;66122;47.130;16.844;2023-05-16T23:35:03;99076.41;;;11.87;100.00
77149;BME280;66122;47.130;16.844;2023-05-16T23:45:07;99076.50;;;11.86;100.00
77149;BME280;66122;47.130;16.844;2023-05-16T23:55:09;99076.28;;;11.89;100.00
